sensor_id;sensor_type;location;lat;lon;timestamp;pressure;altitude;pressure_sealevel;temperature;humidity
4123;BME280;2075;51.062;6.920;2023-12-28T00:01:09;94751.25;;;-144.48;91.61
4123;BME280;2075;51.062;6.920;2023-12-28T00:03:54;94316.44;;;-144.48;93.88
4123;BME280;2075;51.062;6.920;2023-12-28T00:06:41;94535.84;;;-144.48;94.70
4123;BME280;2075;51.062;6.920;2023-12-28T00:09:26;94546.03;;;-144.48;96.42
4123;BME280;2075;51.062;6.920;2023-12-28T00:12:11;94389.56;;;-144.48;100.00
4123;BME280;2075;51.062;6.920;2023-12-28T00:14:57;94507.41;;;-144.48;100.00
4123;BME280;2075;51.062;6.920;2023-12-28T00:17:42;94464.75;;;-144.48;100.00
4123;BME280;2075;51.062;6.920;2023-12-28T00:20:28;94481.00;;;-144.48;100.00
4123;BME280;2075;51.062;6.920;2023-12-28T00:23:15;94515.53;;;-144.48;100.00
4123;BME280;2075;51.062;6.920;2023-12-28T00:26:00;94550.09;;;-144.48;100.00
4123;BME280;2075;51.062;6.920;2023-12-28T00:28:45;94485.06;;;-144.48;100.00
4123;BME280;2075;51.062;6.920;2023-12-28T00:31:31;94387.53;;;-144.48;100.00
4123;BME280;2075;51.062;6.920;2023-12-28T00:34:17;94454.59;;;-144.48;100.00
4123;BME280;2075;51.062;6.920;2023-12-28T00:37:03;94696.38;;;-144.48;100.00
4123;BME280;2075;51.062;6.920;2023-12-28T00:39:50;94440.38;;;-144.48;100.00
4123;BME280;2075;51.062;6.920;2023-12-28T00:42:35;94676.06;;;-144.48;100.00
4123;BME280;2075;51.062;6.920;2023-12-28T00:45:20;94434.28;;;-144.48;100.00
4123;BME280;2075;51.062;6.920;2023-12-28T00:48:06;94117.31;;;-144.48;100.00
4123;BME280;2075;51.062;6.920;2023-12-28T00:50:53;94401.75;;;-144.48;100.00
4123;BME280;2075;51.062;6.920;2023-12-28T00:53:39;94446.47;;;-144.48;100.00
4123;BME280;2075;51.062;6.920;2023-12-28T00:56:25;94375.34;;;-144.48;100.00
4123;BME280;2075;51.062;6.920;2023-12-28T00:59:11;94383.47;;;-144.48;100.00
4123;BME280;2075;51.062;6.920;2023-12-28T01:01:57;94456.63;;;-144.48;100.00
4123;BME280;2075;51.062;6.920;2023-12-28T01:04:43;94454.59;;;-144.48;100.00
4123;BME280;2075;51.062;6.920;2023-12-28T01:07:29;94387.53;;;-144.48;100.00
4123;BME280;2075;51.062;6.920;2023-12-28T01:10:14;94424.09;;;-144.48;100.00
4123;BME280;2075;51.062;6.920;2023-12-28T01:13:04;94432.25;;;-144.48;100.00
4123;BME280;2075;51.062;6.920;2023-12-28T01:15:50;94385.50;;;-144.48;100.00
4123;BME280;2075;51.062;6.920;2023-12-28T01:18:35;94399.72;;;-144.48;100.00
4123;BME280;2075;51.062;6.920;2023-12-28T01:21:21;94424.09;;;-144.48;100.00
4123;BME280;2075;51.062;6.920;2023-12-28T01:24:06;94389.56;;;-144.48;100.00
4123;BME280;2075;51.062;6.920;2023-12-28T01:26:52;94440.38;;;-144.48;100.00
4123;BME280;2075;51.062;6.920;2023-12-28T01:29:39;94381.44;;;-144.48;100.00
4123;BME280;2075;51.062;6.920;2023-12-28T01:32:24;94454.59;;;-144.48;100.00
4123;BME280;2075;51.062;6.920;2023-12-28T01:35:10;94393.63;;;-144.48;100.00
4123;BME280;2075;51.062;6.920;2023-12-28T01:37:56;94424.09;;;-144.48;100.00
4123;BME280;2075;51.062;6.920;2023-12-28T01:40:44;94440.38;;;-144.48;100.00
4123;BME280;2075;51.062;6.920;2023-12-28T01:43:30;94428.16;;;-144.48;100.00
4123;BME280;2075;51.062;6.920;2023-12-28T01:46:19;94448.50;;;-144.48;100.00
4123;BME280;2075;51.062;6.920;2023-12-28T01:49:06;94430.22;;;-144.48;100.00
4123;BME280;2075;51.062;6.920;2023-12-28T01:51:52;94446.47;;;-144.48;100.00
4123;BME280;2075;51.062;6.920;2023-12-28T01:54:38;94413.94;;;-144.48;100.00
4123;BME280;2075;51.062;6.920;2023-12-28T01:57:24;94415.97;;;-144.48;100.00
4123;BME280;2075;51.062;6.920;2023-12-28T02:00:11;94413.94;;;-144.48;100.00
4123;BME280;2075;51.062;6.920;2023-12-28T02:03:02;94405.81;;;-144.48;100.00
4123;BME280;2075;51.062;6.920;2023-12-28T02:05:48;94397.69;;;-144.48;100.00
4123;BME280;2075;51.062;6.920;2023-12-28T02:08:34;94458.66;;;-144.48;100.00
4123;BME280;2075;51.062;6.920;2023-12-28T02:11:19;94407.84;;;-144.48;100.00
4123;BME280;2075;51.062;6.920;2023-12-28T02:14:05;94385.50;;;-144.48;100.00
4123;BME280;2075;51.062;6.920;2023-12-28T02:17:04;94420.03;;;-144.48;100.00
4123;BME280;2075;51.062;6.920;2023-12-28T02:19:54;94415.97;;;-144.48;100.00
4123;BME280;2075;51.062;6.920;2023-12-28T02:22:40;94346.91;;;-144.48;100.00
4123;BME280;2075;51.062;6.920;2023-12-28T02:25:27;94322.53;;;-144.48;100.00
4123;BME280;2075;51.062;6.920;2023-12-28T02:28:13;94271.72;;;-144.48;100.00
4123;BME280;2075;51.062;6.920;2023-12-28T02:30:59;94285.94;;;-144.48;100.00
4123;BME280;2075;51.062;6.920;2023-12-28T02:33:49;94548.06;;;-144.48;100.00
4123;BME280;2075;51.062;6.920;2023-12-28T02:36:37;94296.13;;;-144.48;100.00
4123;BME280;2075;51.062;6.920;2023-12-28T02:39:24;94359.09;;;-144.48;100.00
4123;BME280;2075;51.062;6.920;2023-12-28T02:42:13;94336.75;;;-144.48;100.00
4123;BME280;2075;51.062;6.920;2023-12-28T02:44:58;94302.22;;;-144.48;100.00
4123;BME280;2075;51.062;6.920;2023-12-28T02:47:43;94294.09;;;-144.48;100.00
4123;BME280;2075;51.062;6.920;2023-12-28T02:50:29;94407.84;;;-144.48;100.00
4123;BME280;2075;51.062;6.920;2023-12-28T02:53:15;94196.56;;;-144.48;100.00
4123;BME280;2075;51.062;6.920;2023-12-28T02:56:00;94245.31;;;-144.48;100.00
4123;BME280;2075;51.062;6.920;2023-12-28T02:58:47;94326.59;;;-144.48;100.00
4123;BME280;2075;51.062;6.920;2023-12-28T03:01:32;94346.91;;;-144.48;100.00
4123;BME280;2075;51.062;6.920;2023-12-28T03:04:19;94326.59;;;-144.48;100.00
4123;BME280;2075;51.062;6.920;2023-12-28T03:07:05;94399.72;;;-144.48;100.00
4123;BME280;2075;51.062;6.920;2023-12-28T03:09:51;94334.72;;;-144.48;100.00
4123;BME280;2075;51.062;6.920;2023-12-28T03:12:37;94281.88;;;-144.48;100.00
4123;BME280;2075;51.062;6.920;2023-12-28T03:15:24;94214.84;;;-144.48;100.00
4123;BME280;2075;51.062;6.920;2023-12-28T03:18:09;94314.41;;;-144.48;100.00
4123;BME280;2075;51.062;6.920;2023-12-28T03:20:54;94302.22;;;-144.48;100.00
4123;BME280;2075;51.062;6.920;2023-12-28T03:23:40;94220.94;;;-144.48;100.00
4123;BME280;2075;51.062;6.920;2023-12-28T03:26:25;94084.81;;;-144.48;100.00
4123;BME280;2075;51.062;6.920;2023-12-28T03:29:11;94131.56;;;-144.48;100.00
4123;BME280;2075;51.062;6.920;2023-12-28T03:31:58;94090.91;;;-144.48;100.00
4123;BME280;2075;51.062;6.920;2023-12-28T03:34:44;93964.97;;;-144.48;100.00
4123;BME280;2075;51.062;6.920;2023-12-28T03:37:30;93889.81;;;-144.48;100.00
4123;BME280;2075;51.062;6.920;2023-12-28T03:40:15;93979.19;;;-144.48;100.00
4123;BME280;2075;51.062;6.920;2023-12-28T03:43:01;94346.91;;;-144.48;100.00
4123;BME280;2075;51.062;6.920;2023-12-28T03:45:46;94066.53;;;-144.48;100.00
4123;BME280;2075;51.062;6.920;2023-12-28T03:48:33;93940.59;;;-144.48;100.00
4123;BME280;2075;51.062;6.920;2023-12-28T03:51:18;93776.03;;;-144.48;100.00
4123;BME280;2075;51.062;6.920;2023-12-28T03:54:04;92711.75;;;-144.48;100.00
4123;BME280;2075;51.062;6.920;2023-12-28T03:56:50;92470.13;;;-144.48;100.00
4123;BME280;2075;51.062;6.920;2023-12-28T03:59:35;92557.44;;;-144.48;100.00
4123;BME280;2075;51.062;6.920;2023-12-28T04:02:20;92612.25;;;-144.48;100.00
4123;BME280;2075;51.062;6.920;2023-12-28T04:05:09;91660.00;;;-144.48;100.00
4123;BME280;2075;51.062;6.920;2023-12-28T04:07:55;92587.91;;;-144.48;100.00
4123;BME280;2075;51.062;6.920;2023-12-28T04:10:40;92892.50;;;-144.48;100.00
4123;BME280;2075;51.062;6.920;2023-12-28T04:13:25;92894.53;;;-144.48;100.00
4123;BME280;2075;51.062;6.920;2023-12-28T04:16:12;92001.06;;;-144.48;100.00
4123;BME280;2075;51.062;6.920;2023-12-28T04:18:58;90982.00;;;-144.48;100.00
4123;BME280;2075;51.062;6.920;2023-12-28T04:21:45;89478.28;;;-144.48;100.00
4123;BME280;2075;51.062;6.920;2023-12-28T04:24:30;88553.25;;;-144.48;100.00
4123;BME280;2075;51.062;6.920;2023-12-28T04:27:15;90176.28;;;-144.48;100.00
4123;BME280;2075;51.062;6.920;2023-12-28T04:30:01;91593.00;;;-144.48;100.00
4123;BME280;2075;51.062;6.920;2023-12-28T04:32:46;91724.97;;;-144.48;100.00
4123;BME280;2075;51.062;6.920;2023-12-28T04:35:32;91351.44;;;-144.48;100.00
4123;BME280;2075;51.062;6.920;2023-12-28T04:38:19;91688.41;;;-144.48;100.00
4123;BME280;2075;51.062;6.920;2023-12-28T04:41:04;91014.47;;;-144.48;100.00
4123;BME280;2075;51.062;6.920;2023-12-28T04:43:49;90399.53;;;-144.48;100.00
4123;BME280;2075;51.062;6.920;2023-12-28T04:46:37;92049.81;;;-144.48;100.00
4123;BME280;2075;51.062;6.920;2023-12-28T04:49:25;91337.22;;;-144.48;100.00
4123;BME280;2075;51.062;6.920;2023-12-28T04:52:11;89295.69;;;-144.48;100.00
4123;BME280;2075;51.062;6.920;2023-12-28T04:55:04;86505.28;;;-144.48;100.00
4123;BME280;2075;51.062;6.920;2023-12-28T04:57:50;90764.81;;;-144.48;100.00
4123;BME280;2075;51.062;6.920;2023-12-28T05:00:36;92384.84;;;-144.48;100.00
4123;BME280;2075;51.062;6.920;2023-12-28T05:03:22;92470.13;;;-144.48;100.00
4123;BME280;2075;51.062;6.920;2023-12-28T05:06:08;92998.13;;;-144.48;100.00
4123;BME280;2075;51.062;6.920;2023-12-28T05:08:53;92790.97;;;-144.48;100.00
4123;BME280;2075;51.062;6.920;2023-12-28T05:11:40;93711.03;;;-144.48;100.00
4123;BME280;2075;51.062;6.920;2023-12-28T05:14:25;93786.19;;;-144.48;100.00
4123;BME280;2075;51.062;6.920;2023-12-28T05:17:11;94013.72;;;-144.48;100.00
4123;BME280;2075;51.062;6.920;2023-12-28T05:19:56;94058.41;;;-144.48;100.00
4123;BME280;2075;51.062;6.920;2023-12-28T05:22:42;93932.47;;;-144.48;100.00
4123;BME280;2075;51.062;6.920;2023-12-28T05:25:27;93861.34;;;-144.48;100.00
4123;BME280;2075;51.062;6.920;2023-12-28T05:28:14;93902.00;;;-144.48;100.00
4123;BME280;2075;51.062;6.920;2023-12-28T05:31:00;94237.19;;;-144.48;100.00
4123;BME280;2075;51.062;6.920;2023-12-28T05:33:45;94344.88;;;-144.48;100.00
4123;BME280;2075;51.062;6.920;2023-12-28T05:36:31;94277.81;;;-144.48;100.00
4123;BME280;2075;51.062;6.920;2023-12-28T05:39:16;94373.31;;;-144.48;100.00
4123;BME280;2075;51.062;6.920;2023-12-28T05:42:02;94420.03;;;-144.48;100.00
4123;BME280;2075;51.062;6.920;2023-12-28T05:44:49;94460.69;;;-144.48;100.00
4123;BME280;2075;51.062;6.920;2023-12-28T05:47:34;94472.88;;;-144.48;100.00
4123;BME280;2075;51.062;6.920;2023-12-28T05:50:20;94483.03;;;-144.48;100.00
4123;BME280;2075;51.062;6.920;2023-12-28T05:53:05;94464.75;;;-144.48;100.00
4123;BME280;2075;51.062;6.920;2023-12-28T05:55:50;94491.16;;;-144.48;100.00
4123;BME280;2075;51.062;6.920;2023-12-28T05:58:36;94517.56;;;-144.48;100.00
4123;BME280;2075;51.062;6.920;2023-12-28T06:01:23;94546.03;;;-144.48;100.00
4123;BME280;2075;51.062;6.920;2023-12-28T06:04:09;94505.38;;;-144.48;100.00
4123;BME280;2075;51.062;6.920;2023-12-28T06:06:54;94513.50;;;-144.48;100.00
4123;BME280;2075;51.062;6.920;2023-12-28T06:09:39;94523.66;;;-144.48;100.00
4123;BME280;2075;51.062;6.920;2023-12-28T06:12:25;94483.03;;;-144.48;100.00
4123;BME280;2075;51.062;6.920;2023-12-28T06:15:10;94523.66;;;-144.48;100.00
4123;BME280;2075;51.062;6.920;2023-12-28T06:17:57;94499.28;;;-144.48;100.00
4123;BME280;2075;51.062;6.920;2023-12-28T06:20:44;94517.56;;;-144.48;100.00
4123;BME280;2075;51.062;6.920;2023-12-28T06:23:30;94533.81;;;-144.48;100.00
4123;BME280;2075;51.062;6.920;2023-12-28T06:26:15;94539.91;;;-144.48;100.00
4123;BME280;2075;51.062;6.920;2023-12-28T06:29:01;94574.47;;;-144.48;100.00
4123;BME280;2075;51.062;6.920;2023-12-28T06:31:47;94531.78;;;-144.48;100.00
4123;BME280;2075;51.062;6.920;2023-12-28T06:34:34;94572.44;;;-144.48;100.00
4123;BME280;2075;51.062;6.920;2023-12-28T06:37:19;94564.31;;;-144.48;100.00
4123;BME280;2075;51.062;6.920;2023-12-28T06:40:06;94576.50;;;-144.48;100.00
4123;BME280;2075;51.062;6.920;2023-12-28T06:42:51;94568.38;;;-144.48;100.00
4123;BME280;2075;51.062;6.920;2023-12-28T06:45:37;94594.78;;;-144.48;100.00
4123;BME280;2075;51.062;6.920;2023-12-28T06:48:23;94576.50;;;-144.48;100.00
4123;BME280;2075;51.062;6.920;2023-12-28T06:51:11;94613.06;;;-144.48;100.00
4123;BME280;2075;51.062;6.920;2023-12-28T06:54:00;94556.19;;;-144.48;100.00
4123;BME280;2075;51.062;6.920;2023-12-28T06:56:46;94578.53;;;-144.48;100.00
4123;BME280;2075;51.062;6.920;2023-12-28T06:59:31;94558.22;;;-144.48;99.81
4123;BME280;2075;51.062;6.920;2023-12-28T07:02:17;94558.22;;;-144.48;99.24
4123;BME280;2075;51.062;6.920;2023-12-28T07:05:03;94556.19;;;-144.48;98.48
4123;BME280;2075;51.062;6.920;2023-12-28T07:07:50;94523.66;;;-144.48;98.27
4123;BME280;2075;51.062;6.920;2023-12-28T07:10:35;94546.03;;;-144.48;98.06
4123;BME280;2075;51.062;6.920;2023-12-28T07:13:23;94554.16;;;-144.48;97.87
4123;BME280;2075;51.062;6.920;2023-12-28T07:16:08;94537.88;;;-144.48;97.26
4123;BME280;2075;51.062;6.920;2023-12-28T07:18:54;94560.25;;;-144.48;96.72
4123;BME280;2075;51.062;6.920;2023-12-28T07:21:39;94558.22;;;-144.48;96.89
4123;BME280;2075;51.062;6.920;2023-12-28T07:24:26;94537.88;;;-144.48;96.45
4123;BME280;2075;51.062;6.920;2023-12-28T07:27:11;94546.03;;;-144.48;96.98
4123;BME280;2075;51.062;6.920;2023-12-28T07:29:57;94546.03;;;-144.48;96.96
4123;BME280;2075;51.062;6.920;2023-12-28T07:32:42;94590.72;;;-144.48;96.66
4123;BME280;2075;51.062;6.920;2023-12-28T07:35:29;94554.16;;;-144.48;96.77
4123;BME280;2075;51.062;6.920;2023-12-28T07:38:14;94562.28;;;-144.48;95.79
4123;BME280;2075;51.062;6.920;2023-12-28T07:41:01;94558.22;;;-144.48;95.31
4123;BME280;2075;51.062;6.920;2023-12-28T07:43:47;94531.78;;;-144.48;95.36
4123;BME280;2075;51.062;6.920;2023-12-28T07:46:33;94763.44;;;-144.48;94.16
4123;BME280;2075;51.062;6.920;2023-12-28T07:49:19;94533.81;;;-144.48;94.13
4123;BME280;2075;51.062;6.920;2023-12-28T07:52:06;94517.56;;;-144.48;94.34
4123;BME280;2075;51.062;6.920;2023-12-28T07:54:51;94584.63;;;-144.48;93.47
4123;BME280;2075;51.062;6.920;2023-12-28T07:57:38;94529.75;;;-144.48;93.21
4123;BME280;2075;51.062;6.920;2023-12-28T08:00:24;94312.38;;;-144.48;92.60
4123;BME280;2075;51.062;6.920;2023-12-28T08:03:13;94499.28;;;-144.48;91.67
4123;BME280;2075;51.062;6.920;2023-12-28T08:05:59;94537.88;;;-144.48;91.87
4123;BME280;2075;51.062;6.920;2023-12-28T08:08:45;94550.09;;;-144.48;91.39
4123;BME280;2075;51.062;6.920;2023-12-28T08:11:31;94517.56;;;-144.48;91.05
4123;BME280;2075;51.062;6.920;2023-12-28T08:14:18;94539.91;;;-144.48;91.95
4123;BME280;2075;51.062;6.920;2023-12-28T08:17:04;94523.66;;;-144.48;92.00
4123;BME280;2075;51.062;6.920;2023-12-28T08:19:50;94552.13;;;-144.48;91.71
4123;BME280;2075;51.062;6.920;2023-12-28T08:22:39;94328.63;;;-144.48;92.02
4123;BME280;2075;51.062;6.920;2023-12-28T08:25:26;94546.03;;;-144.48;91.89
4123;BME280;2075;51.062;6.920;2023-12-28T08:28:11;94554.16;;;-144.48;91.58
4123;BME280;2075;51.062;6.920;2023-12-28T08:30:58;94505.38;;;-144.48;92.26
4123;BME280;2075;51.062;6.920;2023-12-28T08:33:44;94517.56;;;-144.48;92.16
4123;BME280;2075;51.062;6.920;2023-12-28T08:36:29;94535.84;;;-144.48;91.68
4123;BME280;2075;51.062;6.920;2023-12-28T08:39:15;94489.13;;;-144.48;91.66
4123;BME280;2075;51.062;6.920;2023-12-28T08:42:01;94550.09;;;-144.48;92.10
4123;BME280;2075;51.062;6.920;2023-12-28T08:44:46;94503.34;;;-144.48;91.77
4123;BME280;2075;51.062;6.920;2023-12-28T08:47:33;94513.50;;;-144.48;89.63
4123;BME280;2075;51.062;6.920;2023-12-28T08:50:19;94513.50;;;-144.48;88.93
4123;BME280;2075;51.062;6.920;2023-12-28T08:53:05;94489.13;;;-144.48;87.68
4123;BME280;2075;51.062;6.920;2023-12-28T08:55:51;94537.88;;;-144.48;88.21
4123;BME280;2075;51.062;6.920;2023-12-28T08:58:37;94481.00;;;-144.48;87.89
4123;BME280;2075;51.062;6.920;2023-12-28T09:01:24;94527.72;;;-144.48;87.79
4123;BME280;2075;51.062;6.920;2023-12-28T09:04:13;94501.31;;;-144.48;87.63
4123;BME280;2075;51.062;6.920;2023-12-28T09:06:59;94529.75;;;-144.48;88.08
4123;BME280;2075;51.062;6.920;2023-12-28T09:09:46;94487.09;;;-144.48;87.49
4123;BME280;2075;51.062;6.920;2023-12-28T09:12:35;94470.84;;;-144.48;88.08
4123;BME280;2075;51.062;6.920;2023-12-28T09:15:20;94415.97;;;-144.48;86.97
4123;BME280;2075;51.062;6.920;2023-12-28T09:18:11;94420.03;;;-144.48;86.26
4123;BME280;2075;51.062;6.920;2023-12-28T09:21:00;94424.09;;;-144.48;85.64
4123;BME280;2075;51.062;6.920;2023-12-28T09:23:47;94399.72;;;-144.48;84.07
4123;BME280;2075;51.062;6.920;2023-12-28T09:26:33;94387.53;;;-144.48;82.75
4123;BME280;2075;51.062;6.920;2023-12-28T09:29:19;94440.38;;;-144.48;82.57
4123;BME280;2075;51.062;6.920;2023-12-28T09:32:08;94422.06;;;-144.48;82.63
4123;BME280;2075;51.062;6.920;2023-12-28T09:34:57;94420.03;;;-144.48;83.01
4123;BME280;2075;51.062;6.920;2023-12-28T09:37:45;94424.09;;;-144.48;83.86
4123;BME280;2075;51.062;6.920;2023-12-28T09:40:31;94487.09;;;-144.48;83.73
4123;BME280;2075;51.062;6.920;2023-12-28T09:43:22;94460.69;;;-144.48;82.81
4123;BME280;2075;51.062;6.920;2023-12-28T09:46:08;94407.84;;;-144.48;83.18
4123;BME280;2075;51.062;6.920;2023-12-28T09:48:56;94476.94;;;-144.48;84.41
4123;BME280;2075;51.062;6.920;2023-12-28T09:51:43;94444.44;;;-144.48;85.16
4123;BME280;2075;51.062;6.920;2023-12-28T09:54:30;94403.78;;;-144.48;84.61
4123;BME280;2075;51.062;6.920;2023-12-28T09:57:16;94405.81;;;-144.48;83.61
4123;BME280;2075;51.062;6.920;2023-12-28T10:00:03;94397.69;;;-144.48;83.63
4123;BME280;2075;51.062;6.920;2023-12-28T10:02:57;94411.91;;;-144.48;83.49
4123;BME280;2075;51.062;6.920;2023-12-28T10:05:43;94452.56;;;-144.48;82.71
4123;BME280;2075;51.062;6.920;2023-12-28T10:08:29;94426.13;;;-144.48;83.79
4123;BME280;2075;51.062;6.920;2023-12-28T10:11:17;94483.03;;;-144.48;83.60
4123;BME280;2075;51.062;6.920;2023-12-28T10:14:03;94401.75;;;-144.48;83.31
4123;BME280;2075;51.062;6.920;2023-12-28T10:16:50;94430.22;;;-144.48;83.50
4123;BME280;2075;51.062;6.920;2023-12-28T10:19:36;94436.31;;;-144.48;82.63
4123;BME280;2075;51.062;6.920;2023-12-28T10:22:24;94399.72;;;-144.48;81.52
4123;BME280;2075;51.062;6.920;2023-12-28T10:25:11;94355.03;;;-144.48;80.04
4123;BME280;2075;51.062;6.920;2023-12-28T10:28:04;94355.03;;;-144.48;78.94
4123;BME280;2075;51.062;6.920;2023-12-28T10:30:54;94381.44;;;-144.48;78.71
4123;BME280;2075;51.062;6.920;2023-12-28T10:33:41;94367.22;;;-144.48;78.91
4123;BME280;2075;51.062;6.920;2023-12-28T10:36:30;94346.91;;;-144.48;79.45
4123;BME280;2075;51.062;6.920;2023-12-28T10:39:19;94306.28;;;-144.48;79.46
4123;BME280;2075;51.062;6.920;2023-12-28T10:42:09;94367.22;;;-144.48;79.96
4123;BME280;2075;51.062;6.920;2023-12-28T10:45:03;94470.84;;;-144.48;79.29
4123;BME280;2075;51.062;6.920;2023-12-28T10:47:54;94355.03;;;-144.48;79.19
4123;BME280;2075;51.062;6.920;2023-12-28T10:50:43;94363.16;;;-144.48;78.25
4123;BME280;2075;51.062;6.920;2023-12-28T10:53:37;94290.00;;;-144.48;76.26
4123;BME280;2075;51.062;6.920;2023-12-28T10:56:27;94355.03;;;-144.48;74.13
4123;BME280;2075;51.062;6.920;2023-12-28T10:59:23;94338.78;;;-144.48;73.88
4123;BME280;2075;51.062;6.920;2023-12-28T11:02:14;94298.16;;;-144.48;73.88
4123;BME280;2075;51.062;6.920;2023-12-28T11:05:07;94281.88;;;-144.48;72.15
4123;BME280;2075;51.062;6.920;2023-12-28T11:07:54;94247.34;;;-144.48;72.06
4123;BME280;2075;51.062;6.920;2023-12-28T11:10:43;94253.44;;;-144.48;70.53
4123;BME280;2075;51.062;6.920;2023-12-28T11:13:33;94243.28;;;-144.48;69.75
4123;BME280;2075;51.062;6.920;2023-12-28T11:16:22;94198.59;;;-144.48;68.76
4123;BME280;2075;51.062;6.920;2023-12-28T11:19:10;94233.13;;;-144.48;68.41
4123;BME280;2075;51.062;6.920;2023-12-28T11:21:59;94220.94;;;-144.48;67.75
4123;BME280;2075;51.062;6.920;2023-12-28T11:24:46;94188.44;;;-144.48;67.18
4123;BME280;2075;51.062;6.920;2023-12-28T11:27:33;94170.16;;;-144.48;65.59
4123;BME280;2075;51.062;6.920;2023-12-28T11:30:19;94153.91;;;-144.48;65.42
4123;BME280;2075;51.062;6.920;2023-12-28T11:33:05;94204.69;;;-144.48;65.67
4123;BME280;2075;51.062;6.920;2023-12-28T11:35:53;94186.41;;;-144.48;64.54
4123;BME280;2075;51.062;6.920;2023-12-28T11:38:41;94131.56;;;-144.48;64.50
4123;BME280;2075;51.062;6.920;2023-12-28T11:41:27;94099.03;;;-144.48;63.70
4123;BME280;2075;51.062;6.920;2023-12-28T11:44:15;94107.16;;;-144.48;61.97
4123;BME280;2075;51.062;6.920;2023-12-28T11:47:10;94115.28;;;-144.48;61.87
4123;BME280;2075;51.062;6.920;2023-12-28T11:50:06;94054.34;;;-144.48;61.47
4123;BME280;2075;51.062;6.920;2023-12-28T11:52:57;94151.88;;;-144.48;63.43
4123;BME280;2075;51.062;6.920;2023-12-28T11:55:43;94090.91;;;-144.48;61.75
4123;BME280;2075;51.062;6.920;2023-12-28T11:58:29;94115.28;;;-144.48;61.49
4123;BME280;2075;51.062;6.920;2023-12-28T12:01:14;94151.88;;;-144.48;60.67
4123;BME280;2075;51.062;6.920;2023-12-28T12:04:00;94127.50;;;-144.48;61.68
4123;BME280;2075;51.062;6.920;2023-12-28T12:06:45;94168.13;;;-144.48;61.97
4123;BME280;2075;51.062;6.920;2023-12-28T12:09:33;94157.97;;;-144.48;61.90
4123;BME280;2075;51.062;6.920;2023-12-28T12:12:20;94145.78;;;-144.48;61.48
4123;BME280;2075;51.062;6.920;2023-12-28T12:15:06;94174.22;;;-144.48;60.80
4123;BME280;2075;51.062;6.920;2023-12-28T12:17:52;94151.88;;;-144.48;62.06
4123;BME280;2075;51.062;6.920;2023-12-28T12:20:38;94170.16;;;-144.48;61.94
4123;BME280;2075;51.062;6.920;2023-12-28T12:23:23;94129.53;;;-144.48;61.03
4123;BME280;2075;51.062;6.920;2023-12-28T12:26:10;94178.28;;;-144.48;60.80
4123;BME280;2075;51.062;6.920;2023-12-28T12:28:58;94145.78;;;-144.48;61.59
4123;BME280;2075;51.062;6.920;2023-12-28T12:31:44;94178.28;;;-144.48;59.83
4123;BME280;2075;51.062;6.920;2023-12-28T12:34:32;94206.72;;;-144.48;60.86
4123;BME280;2075;51.062;6.920;2023-12-28T12:37:18;94141.72;;;-144.48;60.92
4123;BME280;2075;51.062;6.920;2023-12-28T12:40:08;94184.38;;;-144.48;60.83
4123;BME280;2075;51.062;6.920;2023-12-28T12:42:57;94225.00;;;-144.48;59.33
4123;BME280;2075;51.062;6.920;2023-12-28T12:45:43;94208.75;;;-144.48;60.77
4123;BME280;2075;51.062;6.920;2023-12-28T12:48:29;94214.84;;;-144.48;60.68
4123;BME280;2075;51.062;6.920;2023-12-28T12:51:15;94273.75;;;-144.48;60.05
4123;BME280;2075;51.062;6.920;2023-12-28T12:54:03;94233.13;;;-144.48;61.32
4123;BME280;2075;51.062;6.920;2023-12-28T12:56:49;94279.84;;;-144.48;61.77
4123;BME280;2075;51.062;6.920;2023-12-28T12:59:36;94261.56;;;-144.48;61.17
4123;BME280;2075;51.062;6.920;2023-12-28T13:02:22;94245.31;;;-144.48;62.22
4123;BME280;2075;51.062;6.920;2023-12-28T13:05:09;94265.63;;;-144.48;63.30
4123;BME280;2075;51.062;6.920;2023-12-28T13:08:00;94222.97;;;-144.48;63.35
4123;BME280;2075;51.062;6.920;2023-12-28T13:10:47;94245.31;;;-144.48;63.96
4123;BME280;2075;51.062;6.920;2023-12-28T13:13:33;94273.75;;;-144.48;63.96
4123;BME280;2075;51.062;6.920;2023-12-28T13:16:20;94281.88;;;-144.48;62.36
4123;BME280;2075;51.062;6.920;2023-12-28T13:19:06;94253.44;;;-144.48;61.77
4123;BME280;2075;51.062;6.920;2023-12-28T13:21:51;94261.56;;;-144.48;61.64
4123;BME280;2075;51.062;6.920;2023-12-28T13:24:37;94271.72;;;-144.48;62.34
4123;BME280;2075;51.062;6.920;2023-12-28T13:27:22;94277.81;;;-144.48;63.17
4123;BME280;2075;51.062;6.920;2023-12-28T13:30:09;94231.09;;;-144.48;63.14
4123;BME280;2075;51.062;6.920;2023-12-28T13:33:04;94237.19;;;-144.48;62.35
4123;BME280;2075;51.062;6.920;2023-12-28T13:35:51;94257.50;;;-144.48;62.71
4123;BME280;2075;51.062;6.920;2023-12-28T13:38:37;94287.97;;;-144.48;62.72
4123;BME280;2075;51.062;6.920;2023-12-28T13:41:24;94076.69;;;-144.48;62.33
4123;BME280;2075;51.062;6.920;2023-12-28T13:44:11;94308.31;;;-144.48;65.18
4123;BME280;2075;51.062;6.920;2023-12-28T13:46:59;94316.44;;;-144.48;65.67
4123;BME280;2075;51.062;6.920;2023-12-28T13:49:49;94314.41;;;-144.48;66.01
4123;BME280;2075;51.062;6.920;2023-12-28T13:52:36;94306.28;;;-144.48;66.67
4123;BME280;2075;51.062;6.920;2023-12-28T13:55:23;94277.81;;;-144.48;67.13
4123;BME280;2075;51.062;6.920;2023-12-28T13:58:08;94269.69;;;-144.48;68.22
4123;BME280;2075;51.062;6.920;2023-12-28T14:00:56;94631.34;;;-144.48;68.43
4123;BME280;2075;51.062;6.920;2023-12-28T14:03:42;94332.69;;;-144.48;67.33
4123;BME280;2075;51.062;6.920;2023-12-28T14:06:34;94314.41;;;-144.48;68.30
4123;BME280;2075;51.062;6.920;2023-12-28T14:09:20;94342.84;;;-144.48;68.83
4123;BME280;2075;51.062;6.920;2023-12-28T14:12:06;94253.44;;;-144.48;69.94
4123;BME280;2075;51.062;6.920;2023-12-28T14:14:52;94361.13;;;-144.48;71.07
4123;BME280;2075;51.062;6.920;2023-12-28T14:17:38;94346.91;;;-144.48;70.40
4123;BME280;2075;51.062;6.920;2023-12-28T14:20:24;94355.03;;;-144.48;70.98
4123;BME280;2075;51.062;6.920;2023-12-28T14:23:16;94334.72;;;-144.48;69.72
4123;BME280;2075;51.062;6.920;2023-12-28T14:26:11;94367.22;;;-144.48;70.73
4123;BME280;2075;51.062;6.920;2023-12-28T14:28:58;94330.66;;;-144.48;70.68
4123;BME280;2075;51.062;6.920;2023-12-28T14:31:48;94328.63;;;-144.48;70.72
4123;BME280;2075;51.062;6.920;2023-12-28T14:34:35;94373.31;;;-144.48;71.17
4123;BME280;2075;51.062;6.920;2023-12-28T14:37:21;94385.50;;;-144.48;70.91